Time;durP1;ratioP1;P1;durP2;ratioP2;P2;SDS_P1;SDS_P2;PMS_P1;PMS_P2;Temp;Humidity;BMP_temperature;BMP_pressure;BME280_temperature;BME280_humidity;BME280_pressure;Samples;Min_cycle;Max_cycle;Signal;HPM_P1;HPM_P2
2023/01/08 00:01:20;;;;;;;10.38;3.17;;;10.50;72.40;;;;;;5010908;28;20496;-81
2023/01/08 00:04:05;;;;;;;10.82;3.42;;;10.50;72.50;;;;;;5022340;28;20103;-81
2023/01/08 00:06:49;;;;;;;12.32;3.05;;;10.50;72.50;;;;;;5009126;28;20037;-80
2023/01/08 00:09:34;;;;;;;10.00;2.55;;;10.50;72.50;;;;;;5007577;28;20084;-80
2023/01/08 00:12:18;;;;;;;8.90;2.60;;;10.50;72.50;;;;;;5014296;28;20040;-80
2023/01/08 00:15:03;;;;;;;10.27;2.33;;;10.50;72.50;;;;;;5007897;28;20547;-80
2023/01/08 00:17:48;;;;;;;12.88;3.03;;;10.50;72.50;;;;;;5001449;28;20528;-79
2023/01/08 00:20:32;;;;;;;7.40;2.88;;;10.50;72.50;;;;;;5009034;28;20420;-80
2023/01/08 00:23:18;;;;;;;11.88;3.83;;;10.50;72.50;;;;;;5003389;28;20041;-80
2023/01/08 00:26:05;;;;;;;11.13;2.58;;;10.50;72.50;;;;;;5007738;28;20039;-80
2023/01/08 00:28:49;;;;;;;14.73;4.20;;;10.50;72.50;;;;;;5009739;28;20176;-80
2023/01/08 00:31:34;;;;;;;10.50;3.15;;;10.40;72.30;;;;;;5007153;28;20405;-81
2023/01/08 00:34:18;;;;;;;14.30;3.92;;;10.40;72.30;;;;;;5015537;28;20520;-80
2023/01/08 00:37:03;;;;;;;13.57;3.90;;;10.40;72.90;;;;;;5006711;28;20041;-79
2023/01/08 00:39:48;;;;;;;10.35;3.15;;;10.40;72.40;;;;;;5009885;28;20288;-79
2023/01/08 00:42:32;;;;;;;14.73;2.95;;;10.40;72.40;;;;;;5024136;28;20531;-80
2023/01/08 00:45:17;;;;;;;14.35;2.90;;;10.30;72.30;;;;;;5006017;28;20785;-79
2023/01/08 00:48:01;;;;;;;11.18;3.22;;;10.30;72.30;;;;;;4999603;28;20531;-78
2023/01/08 00:50:46;;;;;;;8.07;2.80;;;10.30;72.40;;;;;;4999930;28;20088;-79
2023/01/08 00:53:31;;;;;;;16.65;5.97;;;10.30;72.40;;;;;;5006988;28;20072;-78
2023/01/08 00:56:16;;;;;;;13.02;3.55;;;10.30;72.40;;;;;;5007987;28;20117;-79
2023/01/08 00:59:00;;;;;;;15.50;4.00;;;10.20;72.20;;;;;;5006027;28;20091;-79
2023/01/08 01:01:45;;;;;;;11.95;2.85;;;10.20;72.20;;;;;;5013445;28;20481;-79
2023/01/08 01:04:30;;;;;;;12.77;2.95;;;10.30;72.40;;;;;;5026115;28;20061;-79
2023/01/08 01:07:14;;;;;;;15.45;3.92;;;10.20;72.20;;;;;;5009755;28;20052;-79
2023/01/08 01:09:59;;;;;;;11.73;2.97;;;10.20;72.20;;;;;;5000771;28;20165;-79
2023/01/08 01:12:43;;;;;;;12.50;3.30;;;10.30;72.40;;;;;;5007412;28;20040;-79
2023/01/08 01:15:28;;;;;;;16.45;4.18;;;10.30;72.40;;;;;;5011521;28;21534;-78
2023/01/08 01:18:13;;;;;;;9.98;2.75;;;10.30;72.40;;;;;;5007202;28;20166;-78
2023/01/08 01:20:57;;;;;;;11.32;3.00;;;10.30;72.40;;;;;;5021325;28;20044;-78
2023/01/08 01:23:42;;;;;;;14.20;4.32;;;10.30;72.40;;;;;;5010876;28;20547;-79
2023/01/08 01:26:27;;;;;;;12.57;3.17;;;10.30;72.30;;;;;;5023385;28;20479;-79
2023/01/08 01:29:11;;;;;;;15.10;3.50;;;10.20;72.10;;;;;;5030829;28;20084;-79
2023/01/08 01:31:56;;;;;;;8.43;2.28;;;10.30;72.30;;;;;;5027854;28;20033;-78
2023/01/08 01:34:41;;;;;;;15.13;3.95;;;10.30;72.30;;;;;;5021947;28;20443;-78
2023/01/08 01:37:26;;;;;;;15.98;3.78;;;10.30;72.20;;;;;;5022946;28;20072;-78
2023/01/08 01:40:11;;;;;;;12.35;4.22;;;10.30;72.20;;;;;;5013181;28;20044;-80
2023/01/08 01:42:55;;;;;;;10.27;2.72;;;10.20;72.00;;;;;;5010091;28;20429;-77
2023/01/08 01:45:41;;;;;;;14.02;3.25;;;10.20;72.00;;;;;;5011351;28;20072;-78
2023/01/08 01:48:26;;;;;;;13.43;4.28;;;10.20;72.10;;;;;;5002567;28;20040;-79
2023/01/08 01:51:10;;;;;;;11.52;2.88;;;10.20;72.10;;;;;;5007368;28;20766;-79
2023/01/08 01:53:56;;;;;;;9.93;2.70;;;10.20;72.10;;;;;;4993609;28;20062;-78
2023/01/08 01:56:41;;;;;;;10.32;3.13;;;10.20;72.10;;;;;;5006423;28;20095;-78
2023/01/08 01:59:26;;;;;;;10.07;2.33;;;10.20;72.20;;;;;;5006992;28;20120;-78
2023/01/08 02:02:11;;;;;;;14.55;3.22;;;10.20;72.10;;;;;;5003227;28;20096;-78
2023/01/08 02:04:55;;;;;;;12.20;3.33;;;10.10;72.00;;;;;;5005569;28;20046;-78
2023/01/08 02:07:48;;;;;;;8.18;2.30;;;10.10;72.00;;;;;;5005496;28;20048;-78
2023/01/08 02:10:53;;;;;;;7.13;2.33;;;10.10;72.00;;;;;;5015188;28;20099;-78
2023/01/08 02:13:42;;;;;;;12.05;3.10;;;10.10;72.00;;;;;;5001045;28;20161;-77
2023/01/08 02:16:38;;;;;;;11.15;3.00;;;10.10;72.00;;;;;;4993183;28;20050;-79
2023/01/08 02:19:46;;;;;;;12.80;2.00;;;10.00;71.80;;;;;;5010100;28;20040;-78
2023/01/08 02:23:01;;;;;;;8.65;2.85;;;10.00;71.80;;;;;;5013319;28;20441;-79
2023/01/08 02:26:04;;;;;;;8.73;2.30;;;10.00;71.80;;;;;;5006049;28;20044;-78
2023/01/08 02:29:02;;;;;;;11.45;2.30;;;10.00;71.80;;;;;;5010049;28;20057;-78
2023/01/08 02:31:47;;;;;;;11.98;2.85;;;9.90;71.60;;;;;;5010324;28;20107;-78
2023/01/08 02:34:32;;;;;;;11.32;2.10;;;9.90;71.70;;;;;;5008344;28;20092;-79
2023/01/08 02:37:16;;;;;;;9.68;2.30;;;9.90;71.70;;;;;;5004083;28;20033;-79
2023/01/08 02:40:05;;;;;;;13.25;3.15;;;9.90;71.80;;;;;;5003927;28;20044;-79
2023/01/08 02:42:57;;;;;;;10.15;2.25;;;9.80;71.60;;;;;;5009634;28;20087;-78
2023/01/08 02:45:44;;;;;;;7.70;2.22;;;9.80;71.70;;;;;;5018574;28;20045;-77
2023/01/08 02:48:46;;;;;;;9.32;2.95;;;9.80;71.70;;;;;;4998850;28;20049;-78
2023/01/08 02:51:38;;;;;;;8.95;3.15;;;9.80;71.70;;;;;;4999323;28;20508;-78
2023/01/08 02:54:28;;;;;;;9.60;2.20;;;9.80;71.70;;;;;;5007731;28;20052;-78
2023/01/08 02:57:14;;;;;;;9.63;2.45;;;9.80;71.70;;;;;;5010310;28;20430;-78
2023/01/08 02:59:58;;;;;;;7.55;2.13;;;9.80;71.70;;;;;;5008139;28;20123;-78
2023/01/08 03:02:44;;;;;;;7.97;1.88;;;9.80;71.70;;;;;;4999446;28;20041;-79
2023/01/08 03:05:29;;;;;;;9.27;2.30;;;9.80;71.80;;;;;;4996424;28;20033;-79
2023/01/08 03:08:13;;;;;;;10.63;2.28;;;9.80;71.70;;;;;;5008468;28;20615;-79
2023/01/08 03:11:06;;;;;;;7.05;1.63;;;9.80;71.70;;;;;;5001304;28;20037;-79
2023/01/08 03:14:09;;;;;;;10.25;2.05;;;9.80;71.70;;;;;;5015501;28;20040;-79
2023/01/08 03:17:25;;;;;;;7.28;1.98;;;9.80;71.70;;;;;;5009770;28;20048;-78
2023/01/08 03:20:14;;;;;;;12.02;1.80;;;9.80;71.70;;;;;;5006609;28;20057;-78
2023/01/08 03:23:01;;;;;;;5.90;1.63;;;9.80;71.70;;;;;;5001383;28;20130;-78
2023/01/08 03:25:47;;;;;;;8.77;1.75;;;9.80;71.70;;;;;;4998863;28;20044;-78
2023/01/08 03:28:41;;;;;;;5.85;1.27;;;9.70;71.50;;;;;;5009012;28;20053;-79
2023/01/08 03:31:28;;;;;;;8.00;1.90;;;9.70;71.50;;;;;;5018690;28;20107;-80
2023/01/08 03:34:14;;;;;;;6.65;1.45;;;9.70;71.50;;;;;;5000530;28;20049;-79
2023/01/08 03:37:01;;;;;;;6.43;2.05;;;9.70;71.50;;;;;;4998754;28;20064;-79
2023/01/08 03:40:00;;;;;;;14.98;1.80;;;9.60;71.30;;;;;;5007187;28;20096;-78
2023/01/08 03:42:44;;;;;;;8.73;2.05;;;9.60;71.40;;;;;;5007904;28;20123;-80
2023/01/08 03:45:30;;;;;;;4.30;1.27;;;9.60;71.40;;;;;;5000395;28;20126;-79
2023/01/08 03:48:17;;;;;;;5.35;1.20;;;9.60;71.40;;;;;;5000767;28;20065;-79
2023/01/08 03:51:01;;;;;;;6.85;1.40;;;9.60;71.40;;;;;;5007409;28;20077;-79
2023/01/08 03:53:48;;;;;;;5.07;1.50;;;9.60;71.40;;;;;;5009843;28;20065;-80
2023/01/08 03:56:32;;;;;;;6.47;1.25;;;9.60;71.40;;;;;;5013640;28;20183;-79
2023/01/08 03:59:17;;;;;;;5.72;1.75;;;9.60;71.40;;;;;;5011950;28;20623;-78
2023/01/08 04:02:01;;;;;;;4.53;1.50;;;9.60;71.30;;;;;;5003435;28;20129;-79
2023/01/08 04:04:46;;;;;;;5.80;1.52;;;9.60;71.30;;;;;;5004564;28;20040;-78
2023/01/08 04:07:31;;;;;;;9.07;2.10;;;9.60;71.30;;;;;;5003372;28;20107;-79
2023/01/08 04:10:16;;;;;;;4.00;0.93;;;9.60;71.20;;;;;;5011419;28;20068;-78
2023/01/08 04:13:00;;;;;;;4.57;1.33;;;9.60;71.10;;;;;;5006284;28;20056;-79
2023/01/08 04:15:49;;;;;;;7.55;1.50;;;9.60;71.10;;;;;;5008215;28;20041;-79
2023/01/08 04:18:34;;;;;;;5.75;2.38;;;9.70;71.30;;;;;;5011728;28;20101;-79
2023/01/08 04:21:18;;;;;;;2.70;1.00;;;9.70;71.20;;;;;;5008709;28;20045;-78
2023/01/08 04:24:04;;;;;;;5.25;1.67;;;9.70;71.20;;;;;;5010190;28;20036;-79
2023/01/08 04:26:48;;;;;;;5.05;1.08;;;9.70;71.10;;;;;;5008788;28;20120;-79
2023/01/08 04:29:32;;;;;;;4.72;1.25;;;9.70;71.10;;;;;;5012191;28;20060;-81
2023/01/08 04:32:17;;;;;;;6.32;1.75;;;9.70;71.00;;;;;;5005290;28;20133;-80
2023/01/08 04:35:02;;;;;;;6.50;1.50;;;9.70;71.00;;;;;;5010223;28;20045;-81
2023/01/08 04:37:46;;;;;;;2.85;0.95;;;9.70;71.00;;;;;;5020720;28;20099;-79
2023/01/08 04:40:33;;;;;;;5.10;1.52;;;9.70;71.50;;;;;;5006203;28;20093;-80
2023/01/08 04:43:17;;;;;;;5.75;2.42;;;9.70;70.90;;;;;;5004392;28;20100;-79
2023/01/08 04:46:06;;;;;;;4.88;1.10;;;9.70;70.90;;;;;;5014423;28;20045;-81
2023/01/08 04:48:51;;;;;;;3.47;1.35;;;9.70;70.90;;;;;;5004802;28;20188;-81
2023/01/08 04:51:35;;;;;;;4.65;1.20;;;9.70;70.90;;;;;;5010427;28;20083;-80
2023/01/08 04:54:20;;;;;;;4.78;1.40;;;9.70;70.90;;;;;;5004582;28;20138;-81
2023/01/08 04:57:05;;;;;;;4.45;1.10;;;9.70;70.90;;;;;;5015426;28;20166;-81
2023/01/08 04:59:49;;;;;;;3.88;1.27;;;9.70;70.90;;;;;;5012004;28;20052;-81
2023/01/08 05:02:34;;;;;;;4.20;1.05;;;9.60;70.70;;;;;;5010268;28;20049;-79
2023/01/08 05:05:18;;;;;;;3.05;0.90;;;9.60;70.70;;;;;;5000812;28;20041;-80
2023/01/08 05:08:03;;;;;;;6.45;1.48;;;9.60;70.70;;;;;;5005816;28;20076;-80
2023/01/08 05:10:48;;;;;;;5.68;1.42;;;9.50;70.60;;;;;;5010341;28;20045;-79
2023/01/08 05:13:33;;;;;;;5.55;1.73;;;9.50;70.70;;;;;;5011450;28;20524;-82
2023/01/08 05:16:18;;;;;;;3.28;0.90;;;9.50;70.70;;;;;;4995065;28;20053;-80
2023/01/08 05:19:03;;;;;;;5.97;2.35;;;9.40;70.50;;;;;;5008962;28;20040;-79
2023/01/08 05:21:47;;;;;;;4.22;1.30;;;9.40;70.60;;;;;;5011544;28;20555;-80
2023/01/08 05:24:32;;;;;;;3.72;1.15;;;9.40;70.60;;;;;;5006961;28;20044;-80
2023/01/08 05:27:16;;;;;;;3.25;1.17;;;9.40;70.70;;;;;;5001210;28;20052;-80
2023/01/08 05:30:01;;;;;;;3.47;0.93;;;9.40;70.70;;;;;;5003943;28;20053;-81
2023/01/08 05:32:45;;;;;;;5.07;1.00;;;9.30;70.50;;;;;;4996375;28;20508;-79
2023/01/08 05:35:30;;;;;;;4.78;1.33;;;9.30;70.50;;;;;;5006475;28;20096;-79
2023/01/08 05:38:15;;;;;;;3.83;1.23;;;9.30;70.60;;;;;;5000044;28;20045;-79
2023/01/08 05:41:00;;;;;;;3.95;1.15;;;9.20;70.50;;;;;;5002880;28;20508;-80
2023/01/08 05:43:44;;;;;;;8.50;1.13;;;9.20;70.60;;;;;;5010905;28;20116;-80
2023/01/08 05:46:29;;;;;;;4.35;1.17;;;9.20;71.10;;;;;;5006720;28;20752;-81
2023/01/08 05:49:13;;;;;;;4.35;1.02;;;9.20;70.60;;;;;;5001907;28;20056;-81
2023/01/08 05:51:58;;;;;;;3.70;1.00;;;9.20;70.70;;;;;;5014021;28;20080;-81
2023/01/08 05:54:43;;;;;;;4.38;1.02;;;9.10;70.50;;;;;;5005539;28;20128;-80
2023/01/08 05:57:27;;;;;;;3.33;0.90;;;9.10;70.60;;;;;;5002571;28;20083;-80
2023/01/08 06:00:13;;;;;;;3.50;1.05;;;9.10;70.60;;;;;;5011580;28;20144;-80
2023/01/08 06:02:58;;;;;;;4.20;2.47;;;9.10;70.60;;;;;;5005588;28;20052;-80
2023/01/08 06:05:42;;;;;;;4.25;0.93;;;9.10;70.60;;;;;;4997877;28;20038;-80
2023/01/08 06:08:29;;;;;;;5.32;1.17;;;9.10;70.60;;;;;;5006745;28;20053;-80
2023/01/08 06:11:13;;;;;;;3.35;2.33;;;9.10;70.60;;;;;;5004176;28;20057;-79
2023/01/08 06:13:58;;;;;;;3.05;0.73;;;9.00;70.50;;;;;;5007325;28;20505;-79
2023/01/08 06:16:42;;;;;;;4.45;1.38;;;9.00;70.50;;;;;;5011158;28;20087;-81
2023/01/08 06:19:27;;;;;;;3.35;1.27;;;9.00;70.50;;;;;;5006512;28;20457;-80
2023/01/08 06:22:11;;;;;;;3.35;1.13;;;9.00;70.60;;;;;;5003170;28;20120;-81
2023/01/08 06:24:56;;;;;;;6.30;1.15;;;9.00;70.60;;;;;;5009789;28;20244;-81
2023/01/08 06:27:41;;;;;;;4.78;1.05;;;8.90;70.50;;;;;;5008991;28;20068;-84
2023/01/08 06:30:25;;;;;;;5.25;1.08;;;8.90;70.50;;;;;;5002520;28;20551;-82
2023/01/08 06:33:10;;;;;;;4.47;1.00;;;9.00;70.70;;;;;;5008588;28;20103;-83
2023/01/08 06:35:58;;;;;;;3.50;1.05;;;8.90;70.50;;;;;;5001648;28;20609;-81
2023/01/08 06:38:42;;;;;;;5.20;1.20;;;8.90;70.60;;;;;;5006648;28;20052;-81
2023/01/08 06:41:27;;;;;;;2.35;0.90;;;8.90;70.60;;;;;;5002073;28;20106;-82
2023/01/08 06:44:12;;;;;;;2.47;0.82;;;8.90;70.60;;;;;;4998424;28;20366;-81
2023/01/08 06:46:56;;;;;;;5.63;0.95;;;8.90;70.70;;;;;;5003875;28;20385;-83
2023/01/08 06:49:40;;;;;;;4.78;1.25;;;8.90;70.70;;;;;;5018497;28;20118;-80
2023/01/08 06:52:25;;;;;;;4.57;1.33;;;8.90;70.70;;;;;;5006874;28;20069;-84
2023/01/08 06:55:10;;;;;;;3.08;0.80;;;8.80;70.50;;;;;;5019143;28;20048;-86
2023/01/08 06:57:55;;;;;;;6.38;1.23;;;8.90;70.80;;;;;;5011704;28;20044;-83
2023/01/08 07:00:40;;;;;;;4.93;1.10;;;8.90;70.80;;;;;;5016395;28;20211;-85
2023/01/08 07:03:26;;;;;;;2.58;1.02;;;8.80;70.60;;;;;;5018022;28;20188;-83
2023/01/08 07:06:15;;;;;;;2.85;1.15;;;8.80;70.60;;;;;;5025586;28;20064;-83
2023/01/08 07:08:59;;;;;;;6.60;1.17;;;8.90;70.80;;;;;;5015175;28;20061;-83
2023/01/08 07:11:44;;;;;;;3.97;1.30;;;8.80;70.60;;;;;;5004861;28;20036;-82
2023/01/08 07:14:29;;;;;;;7.13;1.50;;;8.90;70.90;;;;;;4999931;28;20045;-83
2023/01/08 07:17:13;;;;;;;7.72;1.30;;;8.80;70.70;;;;;;5007430;28;20386;-82
2023/01/08 07:19:58;;;;;;;4.10;1.35;;;8.80;70.70;;;;;;5020005;28;20040;-81
2023/01/08 07:22:43;;;;;;;6.88;1.48;;;8.80;70.70;;;;;;5005435;28;20123;-82
2023/01/08 07:25:28;;;;;;;5.00;1.00;;;8.80;70.70;;;;;;5012937;28;20044;-83
2023/01/08 07:28:12;;;;;;;5.25;1.88;;;8.80;70.70;;;;;;5010804;28;20125;-80
2023/01/08 07:30:57;;;;;;;11.13;1.92;;;8.80;70.80;;;;;;5017595;28;20107;-82
2023/01/08 07:33:42;;;;;;;7.25;2.10;;;8.80;70.80;;;;;;5009625;28;20133;-80
2023/01/08 07:36:26;;;;;;;5.22;1.48;;;8.90;71.00;;;;;;4999804;28;20052;-80
2023/01/08 07:39:11;;;;;;;7.97;2.00;;;8.90;70.90;;;;;;5011989;28;20052;-80
2023/01/08 07:41:55;;;;;;;6.03;1.38;;;8.80;70.70;;;;;;5022295;28;20508;-78
2023/01/08 07:44:40;;;;;;;10.02;1.85;;;8.90;71.40;;;;;;5011750;28;20033;-82
2023/01/08 07:47:25;;;;;;;4.60;1.48;;;8.80;70.80;;;;;;5017935;28;20104;-88
2023/01/08 07:50:09;;;;;;;7.80;1.95;;;8.90;70.90;;;;;;5017217;28;20089;-89
2023/01/08 07:53:00;;;;;;;8.02;2.10;;;8.90;70.90;;;;;;5025483;28;20052;-87
2023/01/08 07:55:46;;;;;;;6.93;1.48;;;8.90;71.00;;;;;;5027151;28;20048;-88
2023/01/08 07:58:31;;;;;;;12.60;2.55;;;8.90;71.00;;;;;;5018760;28;20101;-89
2023/01/08 08:01:16;;;;;;;10.10;1.77;;;8.90;70.90;;;;;;5016525;28;20040;-83
2023/01/08 08:04:00;;;;;;;9.75;2.08;;;8.90;70.90;;;;;;5018997;28;20523;-89
2023/01/08 08:06:45;;;;;;;7.85;1.58;;;9.00;71.20;;;;;;5014526;28;20045;-92
2023/01/08 08:09:29;;;;;;;8.43;1.90;;;9.00;71.50;;;;;;5014312;28;20045;-92
2023/01/08 08:12:14;;;;;;;16.00;3.65;;;9.10;71.80;;;;;;5009282;28;20065;-87
2023/01/08 08:14:58;;;;;;;7.63;1.73;;;9.20;72.00;;;;;;5005779;28;20095;-79
2023/01/08 08:17:45;;;;;;;5.80;2.30;;;9.30;72.30;;;;;;5007919;28;20080;-80
2023/01/08 08:20:29;;;;;;;8.27;1.90;;;9.30;72.40;;;;;;5012744;28;20084;-78
2023/01/08 08:23:14;;;;;;;6.28;1.63;;;9.30;72.40;;;;;;5009754;28;20105;-79
2023/01/08 08:26:02;;;;;;;11.45;2.65;;;9.40;72.70;;;;;;5008329;28;20100;-82
2023/01/08 08:28:46;;;;;;;11.95;1.70;;;9.50;73.00;;;;;;4999298;28;20264;-86
2023/01/08 08:31:31;;;;;;;7.78;2.03;;;9.50;72.90;;;;;;5003538;28;20041;-85
2023/01/08 08:34:15;;;;;;;7.80;2.33;;;9.50;72.90;;;;;;5009697;28;20157;-88
2023/01/08 08:37:01;;;;;;;5.97;1.98;;;9.60;73.10;;;;;;5010840;28;20571;-87
2023/01/08 08:39:45;;;;;;;9.77;2.28;;;9.60;73.10;;;;;;5008438;28;20049;-90
2023/01/08 08:42:30;;;;;;;8.27;2.08;;;9.60;73.10;;;;;;5022804;28;20044;-79
2023/01/08 08:45:15;;;;;;;10.35;1.90;;;9.50;72.80;;;;;;5005045;28;20294;-80
2023/01/08 08:47:59;;;;;;;9.80;2.88;;;9.60;73.00;;;;;;5011303;28;20048;-81
2023/01/08 08:50:45;;;;;;;7.80;1.92;;;9.60;73.00;;;;;;5001213;28;20096;-83
2023/01/08 08:53:30;;;;;;;7.15;1.90;;;9.60;73.00;;;;;;4999930;28;20044;-85
2023/01/08 08:56:14;;;;;;;7.90;1.98;;;9.70;73.10;;;;;;5006853;28;20038;-84
2023/01/08 08:58:59;;;;;;;6.50;1.65;;;9.70;73.00;;;;;;5007952;28;20199;-88
2023/01/08 09:01:44;;;;;;;9.90;1.88;;;9.60;72.80;;;;;;5022845;28;20536;-83
2023/01/08 09:04:30;;;;;;;9.40;2.40;;;9.70;72.80;;;;;;4993827;28;20139;-85
2023/01/08 09:07:14;;;;;;;7.55;1.55;;;9.70;72.70;;;;;;5002342;28;20105;-84
2023/01/08 09:09:58;;;;;;;9.85;2.33;;;9.70;72.60;;;;;;5007861;28;20049;-86
2023/01/08 09:12:43;;;;;;;9.52;2.58;;;9.80;72.70;;;;;;5006945;28;20041;-87
2023/01/08 09:15:29;;;;;;;8.48;2.08;;;9.70;72.50;;;;;;5009267;28;20045;-84
2023/01/08 09:18:13;;;;;;;6.75;2.58;;;9.80;72.60;;;;;;5013841;28;20069;-87
2023/01/08 09:20:58;;;;;;;10.82;2.83;;;9.80;72.60;;;;;;5002796;28;20045;-86
2023/01/08 09:23:42;;;;;;;12.63;2.72;;;9.80;72.50;;;;;;5008791;28;20410;-89
2023/01/08 09:26:30;;;;;;;8.75;2.63;;;9.80;72.50;;;;;;5009297;28;20044;-83
2023/01/08 09:29:15;;;;;;;11.15;2.53;;;9.80;72.50;;;;;;5007905;28;20072;-85
2023/01/08 09:32:00;;;;;;;8.05;2.53;;;9.90;72.60;;;;;;5014204;28;20075;-86
2023/01/08 09:34:45;;;;;;;13.23;2.30;;;9.90;72.50;;;;;;4996447;28;20050;-86
2023/01/08 09:37:29;;;;;;;7.32;1.90;;;10.00;72.50;;;;;;5000939;28;20044;-84
2023/01/08 09:40:15;;;;;;;11.25;2.28;;;10.00;72.40;;;;;;5005428;28;20068;-85
2023/01/08 09:43:02;;;;;;;10.00;2.30;;;10.10;72.40;;;;;;5002058;28;20071;-84
2023/01/08 09:45:53;;;;;;;15.02;2.80;;;10.10;72.30;;;;;;5003073;28;20049;-83
2023/01/08 09:48:39;;;;;;;10.40;2.40;;;10.20;72.40;;;;;;5017240;28;20092;-80
2023/01/08 09:51:32;;;;;;;8.40;2.72;;;10.20;72.30;;;;;;5002386;28;20108;-86
2023/01/08 09:54:16;;;;;;;11.20;2.58;;;10.30;72.40;;;;;;5035936;28;20358;-91
2023/01/08 09:57:02;;;;;;;9.40;2.40;;;10.40;72.50;;;;;;5014417;28;20106;-91
2023/01/08 09:59:47;;;;;;;6.50;1.65;;;10.40;72.30;;;;;;5026559;28;20033;-91
2023/01/08 10:02:34;;;;;;;9.90;3.17;;;10.40;72.10;;;;;;5012182;28;20119;-87
2023/01/08 10:05:19;;;;;;;7.60;1.88;;;10.50;72.20;;;;;;5007782;28;20363;-93
2023/01/08 10:08:03;;;;;;;5.22;1.60;;;10.50;72.20;;;;;;5010591;28;20571;-86
2023/01/08 10:10:48;;;;;;;4.78;1.40;;;10.60;72.20;;;;;;4995051;28;21311;-86
2023/01/08 10:13:37;;;;;;;6.85;1.85;;;10.70;72.20;;;;;;5002005;28;20409;-82
2023/01/08 10:16:36;;;;;;;8.50;1.73;;;10.90;72.30;;;;;;5001915;28;20363;-82
2023/01/08 10:19:22;;;;;;;6.32;2.45;;;11.00;72.10;;;;;;4999239;28;20065;-85
2023/01/08 10:22:17;;;;;;;7.13;1.45;;;11.20;72.00;;;;;;5002099;28;20678;-86
2023/01/08 10:25:15;;;;;;;9.02;2.15;;;11.30;71.90;;;;;;5005341;28;20091;-85
2023/01/08 10:28:01;;;;;;;7.78;1.63;;;11.40;71.90;;;;;;5002828;28;20345;-86
2023/01/08 10:30:46;;;;;;;4.38;1.55;;;11.50;71.80;;;;;;5007016;28;20543;-83
2023/01/08 10:33:42;;;;;;;7.15;1.73;;;11.60;71.80;;;;;;5005342;28;20037;-85
2023/01/08 10:36:27;;;;;;;5.22;1.73;;;11.70;71.60;;;;;;4994466;28;20073;-87
2023/01/08 10:39:23;;;;;;;6.80;1.63;;;11.90;71.70;;;;;;4999747;28;20042;-81
2023/01/08 10:42:08;;;;;;;6.03;1.48;;;12.00;71.60;;;;;;5007863;28;20040;-80
2023/01/08 10:45:01;;;;;;;4.43;1.13;;;12.00;71.50;;;;;;4992452;28;20389;-80
2023/01/08 10:47:48;;;;;;;7.10;2.58;;;12.00;71.30;;;;;;4990451;28;20052;-83
2023/01/08 10:50:33;;;;;;;7.55;1.73;;;12.00;71.20;;;;;;5006277;28;20076;-82
2023/01/08 10:53:24;;;;;;;4.88;1.10;;;12.00;71.10;;;;;;5004473;28;20061;-83
2023/01/08 10:56:42;;;;;;;3.78;1.33;;;12.00;71.10;;;;;;5007392;28;20523;-89
2023/01/08 10:59:26;;;;;;;2.35;1.05;;;11.90;71.00;;;;;;5006348;28;20413;-79
2023/01/08 11:02:35;;;;;;;6.15;2.17;;;11.90;71.20;;;;;;5006916;28;20048;-83
2023/01/08 11:05:27;;;;;;;7.20;2.20;;;11.80;71.00;;;;;;5006244;28;20315;-82
2023/01/08 11:08:17;;;;;;;6.45;1.50;;;11.70;71.20;;;;;;5010550;28;20044;-80
2023/01/08 11:11:02;;;;;;;4.38;1.42;;;11.70;71.40;;;;;;5001851;28;20100;-80
2023/01/08 11:14:34;;;;;;;4.25;1.05;;;11.80;71.50;;;;;;5006914;28;20040;-82
2023/01/08 11:17:18;;;;;;;2.85;1.85;;;11.80;71.30;;;;;;4998978;28;20084;-81
2023/01/08 11:20:23;;;;;;;3.75;1.20;;;11.90;71.40;;;;;;5001126;28;20512;-82
2023/01/08 11:23:20;;;;;;;4.28;1.38;;;11.90;71.20;;;;;;5013978;28;20342;-81
2023/01/08 11:26:08;;;;;;;5.20;0.95;;;11.90;71.10;;;;;;5004827;28;20045;-81
2023/01/08 11:29:19;;;;;;;3.80;1.20;;;12.00;71.20;;;;;;5004306;28;20049;-81
2023/01/08 11:32:14;;;;;;;3.63;1.10;;;12.00;71.00;;;;;;5003419;28;20045;-80
2023/01/08 11:35:19;;;;;;;2.08;0.88;;;12.00;70.80;;;;;;5017239;28;20132;-91
2023/01/08 11:38:07;;;;;;;5.25;1.20;;;12.10;70.80;;;;;;5007362;28;20477;-89
2023/01/08 11:41:02;;;;;;;2.28;1.00;;;12.20;71.10;;;;;;5020152;28;20061;-90
2023/01/08 11:44:03;;;;;;;3.50;1.45;;;12.20;71.30;;;;;;4999495;28;20169;-91
2023/01/08 11:47:02;;;;;;;2.65;1.10;;;12.30;71.60;;;;;;4998511;28;20199;-88
2023/01/08 11:50:33;;;;;;;3.67;0.95;;;12.30;71.50;;;;;;5005567;28;20103;-88
2023/01/08 11:53:45;;;;;;;3.47;1.73;;;12.40;71.60;;;;;;5002026;28;20056;-90
2023/01/08 11:56:33;;;;;;;3.65;2.72;;;12.50;71.60;;;;;;5003410;28;20049;-89
2023/01/08 11:59:40;;;;;;;4.47;3.58;;;12.50;71.40;;;;;;5002591;28;20132;-91
2023/01/08 12:02:51;;;;;;;9.18;8.35;;;12.60;71.40;;;;;;4995438;28;20096;-86
2023/01/08 12:06:26;;;;;;;7.47;6.78;;;12.70;71.60;;;;;;5005880;28;20185;-88
2023/01/08 12:09:21;;;;;;;7.72;6.32;;;12.70;71.70;;;;;;5007731;28;20489;-89
2023/01/08 12:12:31;;;;;;;5.32;4.82;;;12.90;71.80;;;;;;5008040;28;20221;-87
2023/01/08 12:15:38;;;;;;;6.25;4.68;;;12.90;71.60;;;;;;5004123;28;20106;-90
2023/01/08 12:18:41;;;;;;;4.38;3.53;;;12.90;71.40;;;;;;5016812;28;20096;-89
2023/01/08 12:21:57;;;;;;;5.30;3.95;;;13.00;71.50;;;;;;5009482;28;20056;-91
2023/01/08 12:25:21;;;;;;;3.53;2.90;;;13.00;71.20;;;;;;5008492;28;20113;-87
2023/01/08 12:28:28;;;;;;;3.90;2.63;;;13.10;71.10;;;;;;5010251;28;20088;-90
2023/01/08 12:31:30;;;;;;;7.65;2.30;;;13.10;70.80;;;;;;5009697;28;20144;-83
2023/01/08 12:34:24;;;;;;;4.40;2.20;;;13.10;70.70;;;;;;5007630;28;20041;-82
2023/01/08 12:37:17;;;;;;;2.03;1.80;;;13.10;70.60;;;;;;5011106;28;20049;-85
2023/01/08 12:40:47;;;;;;;4.30;1.88;;;13.10;70.40;;;;;;5007821;28;20040;-86
2023/01/08 12:43:52;;;;;;;2.92;1.88;;;13.10;70.50;;;;;;5006436;28;20076;-85
2023/01/08 12:46:41;;;;;;;4.78;2.17;;;13.10;70.30;;;;;;4992406;28;20048;-82
2023/01/08 12:49:46;;;;;;;4.25;1.77;;;13.20;70.20;;;;;;5009855;28;20048;-82
2023/01/08 12:52:48;;;;;;;4.13;1.90;;;13.20;70.00;;;;;;5017191;28;20053;-86
2023/01/08 12:55:55;;;;;;;3.17;1.77;;;13.20;69.80;;;;;;5003801;28;20103;-86
2023/01/08 12:58:44;;;;;;;2.15;1.50;;;13.30;70.00;;;;;;5003653;28;20269;-86
2023/01/08 13:01:49;;;;;;;2.30;1.40;;;13.30;70.00;;;;;;5005750;28;20164;-87
2023/01/08 13:04:45;;;;;;;2.20;1.42;;;13.20;69.80;;;;;;5003516;28;20045;-83
2023/01/08 13:07:44;;;;;;;4.63;2.42;;;13.30;70.00;;;;;;4998482;28;20049;-80
2023/01/08 13:10:40;;;;;;;5.53;1.70;;;13.30;70.30;;;;;;5004584;28;20440;-80
2023/01/08 13:13:30;;;;;;;7.55;2.55;;;13.40;70.80;;;;;;5005036;28;20072;-79
2023/01/08 13:16:23;;;;;;;2.72;1.63;;;13.50;71.10;;;;;;4998913;28;20061;-77
2023/01/08 13:19:22;;;;;;;4.90;1.80;;;13.70;71.50;;;;;;4992340;28;20529;-84
2023/01/08 13:22:30;;;;;;;4.60;1.70;;;13.80;71.70;;;;;;5004282;28;20285;-82
2023/01/08 13:25:15;;;;;;;4.53;1.85;;;13.90;71.70;;;;;;5018762;28;20075;-86
2023/01/08 13:28:20;;;;;;;5.88;1.50;;;14.00;71.70;;;;;;5005650;28;20056;-82
2023/01/08 13:31:23;;;;;;;4.65;2.00;;;14.10;71.80;;;;;;5026188;28;20127;-84
2023/01/08 13:34:20;;;;;;;3.60;1.35;;;14.20;71.90;;;;;;4989031;28;20180;-85
2023/01/08 13:37:05;;;;;;;5.03;1.55;;;14.20;71.80;;;;;;5009782;28;20037;-85
2023/01/08 13:39:50;;;;;;;5.60;1.30;;;14.20;71.80;;;;;;5011977;28;20048;-80
2023/01/08 13:42:39;;;;;;;3.13;1.15;;;14.20;71.80;;;;;;5009911;28;20040;-85
2023/01/08 13:45:27;;;;;;;3.25;1.13;;;14.20;71.90;;;;;;4982080;28;20041;-79
2023/01/08 13:48:27;;;;;;;3.03;1.02;;;14.20;71.90;;;;;;5001432;28;20036;-83
2023/01/08 13:51:39;;;;;;;2.35;1.02;;;14.10;71.70;;;;;;5010640;28;20555;-82
2023/01/08 13:54:42;;;;;;;2.53;1.38;;;14.10;71.80;;;;;;5003870;28;20065;-81
2023/01/08 13:57:30;;;;;;;3.13;1.02;;;14.10;71.90;;;;;;5012706;28;20067;-82
2023/01/08 14:00:44;;;;;;;3.20;1.15;;;14.00;71.80;;;;;;5004205;28;20103;-82
2023/01/08 14:03:37;;;;;;;2.70;0.90;;;14.00;71.90;;;;;;5007566;28;20052;-82
2023/01/08 14:06:25;;;;;;;3.10;0.90;;;13.90;72.40;;;;;;5004520;28;20378;-81
2023/01/08 14:09:20;;;;;;;2.70;0.90;;;13.90;71.90;;;;;;5009140;28;20059;-83
2023/01/08 14:12:05;;;;;;;1.80;0.90;;;13.90;71.90;;;;;;5011868;28;20040;-81
2023/01/08 14:14:55;;;;;;;1.60;0.95;;;13.90;72.10;;;;;;5010295;28;20106;-93
2023/01/08 14:17:43;;;;;;;2.05;0.88;;;14.00;72.30;;;;;;5007950;28;20072;-89
2023/01/08 14:20:33;;;;;;;2.38;0.93;;;14.10;72.30;;;;;;5005638;28;20080;-89
2023/01/08 14:23:22;;;;;;;2.70;1.85;;;14.10;72.00;;;;;;5004915;28;20089;-91
2023/01/08 14:26:16;;;;;;;3.10;0.70;;;14.10;71.90;;;;;;5013521;28;20321;-92
2023/01/08 14:29:01;;;;;;;2.45;1.00;;;14.00;71.50;;;;;;5011792;28;20065;-91
2023/01/08 14:31:56;;;;;;;3.03;0.77;;;13.90;71.30;;;;;;5008863;28;20032;-91
2023/01/08 14:34:42;;;;;;;1.63;0.98;;;13.80;71.20;;;;;;5012452;28;20098;-91
2023/01/08 14:37:27;;;;;;;2.05;0.73;;;13.70;71.10;;;;;;5029228;28;20100;-90
2023/01/08 14:40:16;;;;;;;2.22;0.63;;;13.60;71.00;;;;;;5027363;28;20128;-89
2023/01/08 14:43:06;;;;;;;1.67;0.80;;;13.50;70.80;;;;;;5014268;28;20052;-84
2023/01/08 14:45:52;;;;;;;0.75;0.57;;;13.40;70.80;;;;;;5006753;28;20509;-87